Tiempo atmosférico en la estación meteorológica de Cañaveral, Cáceres (373 m.)

Fecha
DESCASC
Temp. máxima en grados centígrados (hora)
DESCASC
Temp. mínima en grados centígrados (hora)
DESCASC
Temp. media en grados centígrados
DESCASC
Racha de viento máxima en m/sg (hora)
DESCASC
Velocidad máxima media en intervalos de 10 minutos(hora)
DESCASC
Precipitaciones diarias en mm
DESCASC
Precipitaciones de 00:00 a 06:00 en mm
DESCASC
Precipitaciones de 06:00 a 12:00 en mm
DESCASC
Precipitaciones de 12:00 a 18:00 en mm
DESCASC
Precipitaciones de 18:00 a 24:00 en mm
DESCASC
10-12-2017 13.3 (12:20) 10.5 (02:20) 11.9 15 (22:40) 10 (23:59) 1.6 0 0 0.4 1.2
09-12-2017 17.7 (14:30) 10.1 (09:50) 13.9 9.72 (07:00) 7.22 (06:00) 0 0 0 0 0
08-12-2017 15.6 (16:30) 4.3 (08:10) 10 8.89 (23:00) 6.11 (19:40) 0 0 0 0 0
07-12-2017 14 (16:10) 1.7 (00:00) 7.9 3.61 (16:20) 1.94 (02:30) 0 0 0 0 0
06-12-2017 12.5 (16:00) 1.2 (00:00) 6.9 5.56 (12:40) 3.61 (12:40) 0 0 0 0 0
05-12-2017 12.6 (14:50) 2.8 (00:00) 7.7 6.39 (06:40) 4.17 (00:10) 0 0 0 0 0
04-12-2017 11.9 (15:50) 0.4 (00:00) 6.1 8.61 (14:50) 5.83 (14:50) 0 0 0 0 0
03-12-2017 11.7 (16:00) 3.4 (00:00) 7.5 11.11 (05:50) 7.5 (05:40) 0 0 0 0 0
02-12-2017 10.7 (15:30) 2.7 (00:00) 6.7 10.83 (07:30) 7.78 (07:30) 0 0 0 0 0
01-12-2017 12.3 (16:00) 2.9 (00:00) 7.6 15.83 (13:30) 8.89 (16:30) 0 0 0 0 0
30-11-2017 11.2 (14:20) 3.9 (00:00) 7.5 12.5 (20:10) 9.44 (20:30) 0 0 0 0 0
29-11-2017 12.8 (15:40) 6.8 (00:00) 9.8 13.61 (16:00) 8.89 (12:10) 0 0 0 0 0
28-11-2017 10.2 (21:40) 8 (00:00) 9.1 3.33 (21:10) 2.5 (21:20) 14.2 0.2 3.4 6.4 4.2
27-11-2017 14 (15:10) 5.7 (00:00) 9.8 8.61 (12:20) 5.83 (12:00) 0.2 0 0 0 0.2
26-11-2017 13.2 (14:50) 9 (00:00) 11.1 11.39 (12:20) 7.78 (12:20) 0 0 0 0 0
25-11-2017 16.4 (14:30) 11 (00:00) 13.7 9.44 (23:40) 6.39 (20:10) 0 0 0 0 0
24-11-2017 20 (15:30) 11.2 (00:00) 15.6 8.06 (15:20) 5.83 (15:20) 3 0.8 2.2 0 0
23-11-2017 19.9 (16:00) 11.2 (00:00) 15.5 6.94 (18:30) 3.89 (14:50) 8.6 0 0 0 8.6
22-11-2017 20.2 (15:50) 9.2 (00:00) 14.7 8.06 (10:40) 5 (10:30) 0 0 0 0 0
21-11-2017 20.4 (16:20) 6.4 (00:00) 13.4 5.56 (17:20) 3.89 (20:10) 0 0 0 0 0
20-11-2017 21.5 (16:10) 5.8 (00:00) 13.7 5 (21:40) 3.61 (21:40) 0 0 0 0 0
19-11-2017 21.3 (16:20) 5.8 (00:00) 13.5 5.28 (13:30) 3.89 (19:50) 0 0 0 0 0
18-11-2017 20.7 (15:00) 6.1 (00:00) 13.4 8.89 (11:10) 5.28 (11:10) 0 0 0 0 0
17-11-2017 21.4 (15:50) 5.6 (00:00) 13.5 3.89 (15:40) 3.33 (21:10) 0 0 0 0 0
16-11-2017 19.1 (15:40) 5.8 (00:00) 12.5 4.17 (16:30) 2.78 (16:30) 0 0 0 0 0
15-11-2017 19.2 (16:00) 5.8 (00:00) 12.5 5 (04:40) 3.06 (04:30) 0 0 0 0 0

Gráficas

Temp. máximas Temp. mínimas Temp. medias Precipitaciones Rachas de viento máximas Velocidades máximas media en intervalos de 10 minutos

Datos horarios

Fecha y hora oficial Temperatura (ºC) Velocidad del viento (km/h) Dirección del viento Racha (km/h) Dirección de racha Precipitación (mm) Presión (hPa) Tendencia (hPa) Humedad (%)
2017-12-14 23:00:00 12.3 12 Oeste 19 Sudoeste 0 -- -- 93
2017-12-14 22:00:00 12.2 12 Oeste 27 Oeste 0 -- -- 92
2017-12-14 21:00:00 12.2 12 Sudoeste 27 Oeste 0 -- -- 92
2017-12-14 20:00:00 12.1 13 Oeste 21 Oeste 0 -- -- 91
2017-12-14 19:00:00 12.1 8 Sudoeste 24 Oeste -- -- -- 91
2017-12-14 18:00:00 12.8 17 Oeste 27 Oeste 0 -- -- 89
2017-12-14 17:00:00 13.4 18 Oeste 32 Sudoeste 0 -- -- 91
2017-12-14 16:00:00 13.3 19 Oeste 31 Oeste 0 -- -- 92
2017-12-14 15:00:00 13 17 Oeste 33 Sudoeste 0 -- -- 97
2017-12-14 14:00:00 12 7 Sudoeste 12 Sudoeste 0.2 -- -- 98
2017-12-14 13:00:00 11.2 2 Sur 8 Sudeste 0.2 -- -- 98
2017-12-14 12:00:00 10.7 2 Sur 8 Sur 0.2 -- -- 98
2017-12-14 11:00:00 10.2 6 Sur 9 Sur 0 -- -- 97
2017-12-14 10:00:00 9.6 3 Sudeste 6 Sur 0 -- -- 97
2017-12-14 09:00:00 9.3 0 Calma 5 Sudeste 0 -- -- 97
2017-12-14 08:00:00 9.3 0 Calma 8 Sur 0 -- -- 97
2017-12-14 07:00:00 9.2 3 Sur 6 Sur 0.2 -- -- 96
2017-12-14 06:00:00 9.3 5 Sudoeste 8 Sudoeste 0 -- -- 96
2017-12-14 05:00:00 9.1 5 Sudoeste 8 Sudoeste 0 -- -- 95
2017-12-14 04:00:00 8.9 6 Sudoeste 9 Sudoeste 0 -- -- 94
2017-12-14 03:00:00 8.9 5 Sudoeste 9 Sudoeste 0 -- -- 91
2017-12-14 02:00:00 9 5 Sudoeste 9 Sudoeste 0 -- -- 86
2017-12-14 01:00:00 9.1 6 Sudoeste 10 Sudoeste 0 -- -- 85
2017-12-14 00:00:00 9 4 Sudoeste 10 Oeste 0 -- -- 82
2017-12-13 23:00:00 9.3 6 Oeste 11 Oeste 0 -- -- 80
2017-12-13 22:00:00 9.3 5 Oeste 11 Oeste 0 -- -- 77
2017-12-13 21:00:00 9.5 3 Sur 18 Oeste 0 -- -- 78
2017-12-13 20:00:00 9.8 12 Oeste 17 Noroeste 0 -- -- 76
2017-12-13 19:00:00 10.3 9 Oeste 18 Oeste 0 -- -- 72
2017-12-13 18:00:00 10 12 Oeste 16 Oeste 0 -- -- 72
2017-12-13 17:00:00 10.4 9 Oeste 24 Noroeste 0 -- -- 70
2017-12-13 16:00:00 11.6 12 Oeste 21 Noroeste 0 -- -- 64
2017-12-13 15:00:00 12.3 10 Sudoeste 19 Oeste 0 -- -- 56
2017-12-13 14:00:00 11.8 9 Sudoeste 15 Sudoeste 0 -- -- 57
2017-12-13 13:00:00 10.4 4 Sudeste 9 Sur 0 -- -- 62
2017-12-13 12:00:00 8.6 4 Sudeste 10 Sudeste 0 -- -- 67
2017-12-13 11:00:00 6.7 2 Sudeste 8 Nordeste 0 -- -- 77
2017-12-13 10:00:00 4.7 6 Norte 12 Nordeste 0 -- -- 83
2017-12-13 09:00:00 2.5 5 Nordeste 7 Nordeste 0 -- -- 86
2017-12-13 08:00:00 1.6 0 Calma 9 Nordeste 0 -- -- 86
2017-12-13 07:00:00 3.7 8 Nordeste 12 Nordeste 0 -- -- 80
2017-12-13 06:00:00 3 5 Este 7 Este 0 -- -- 84
2017-12-13 05:00:00 3.7 2 Nordeste 5 Oeste 0 -- -- 80
2017-12-13 04:00:00 4.3 0 Calma 9 Norte 0 -- -- 77
2017-12-13 03:00:00 5.7 10 Norte 12 Norte 0 -- -- 70
2017-12-13 02:00:00 5.6 6 Nordeste 10 Norte 0 -- -- 70
2017-12-13 01:00:00 5.9 7 Norte 12 Norte 0 -- -- 69
2017-12-13 00:00:00 5.2 8 Norte 12 Norte 0 -- -- 73
2017-12-12 23:00:00 6.6 9 Norte 13 Norte 0 -- -- 67
2017-12-12 22:00:00 6.4 3 Norte 11 Este 0 -- -- 67
2017-12-12 21:00:00 6.6 4 Nordeste 8 Este 0 -- -- 67
2017-12-12 20:00:00 7.2 4 Este 13 Noroeste 0 -- -- 66
2017-12-12 19:00:00 7.9 9 Noroeste 22 Noroeste 0 -- -- 63
2017-12-12 18:00:00 9.5 12 Noroeste 20 Norte 0 -- -- 58
2017-12-12 17:00:00 11.4 9 Noroeste 17 Norte 0 -- -- 53
2017-12-12 16:00:00 11.3 10 Norte 21 Nordeste 0 -- -- 54
2017-12-12 15:00:00 10.7 12 Norte 23 Norte 0 -- -- 56
2017-12-12 14:00:00 10.4 8 Norte 26 Noroeste 0 -- -- 58
2017-12-12 13:00:00 9.1 11 Noroeste 28 Noroeste 0 -- -- 62
2017-12-12 12:00:00 7.3 10 Norte 27 Norte 0 -- -- 64
2017-12-12 11:00:00 5.9 16 Norte 24 Norte 0 -- -- 67
2017-12-12 10:00:00 5.1 12 Norte 21 Norte 0 -- -- 68
2017-12-12 09:00:00 3.6 8 Norte 18 Norte 0 -- -- 73
2017-12-12 08:00:00 3.1 5 Norte 16 Noroeste 0 -- -- 76
2017-12-12 07:00:00 3.9 12 Noroeste 31 Norte 0 -- -- 70
2017-12-12 06:00:00 4.5 25 Norte 33 Norte 0 -- -- 67
2017-12-12 05:00:00 4.8 26 Norte 33 Norte 0 -- -- 66
2017-12-12 04:00:00 5.1 22 Norte 42 Noroeste 0 -- -- 65
2017-12-12 03:00:00 3.8 18 Norte 30 Norte 0 -- -- 73
2017-12-12 02:00:00 4.5 22 Norte 30 Noroeste 0 -- -- 69
2017-12-12 01:00:00 4.6 14 Norte 40 Noroeste 0 -- -- 71
2017-12-12 00:00:00 5.4 23 Norte 41 Norte 0 -- -- 68
2017-12-11 23:00:00 6 21 Norte 50 Noroeste -- -- -- 65
2017-12-11 22:00:00 6.5 31 Noroeste 50 Norte 0 -- -- 63
2017-12-11 21:00:00 7.4 22 Norte 48 Norte 0 -- -- 61
2017-12-11 20:00:00 8 28 Norte 48 Norte 0 -- -- 65
2017-12-11 19:00:00 8.3 24 Noroeste 36 Norte 0 -- -- 69
2017-12-11 18:00:00 9.3 24 Noroeste 49 Oeste 0.2 -- -- 68
2017-12-11 17:00:00 10.3 22 Oeste 38 Oeste 0 -- -- 72
2017-12-11 16:00:00 9.6 22 Sudoeste 34 Sudoeste 0 -- -- 81
2017-12-11 15:00:00 8.7 18 Sudoeste 42 Sudoeste 0 -- -- 87
2017-12-11 14:00:00 10.7 25 Oeste 40 Sudoeste 0 -- -- 68
2017-12-11 13:00:00 10.2 27 Oeste 39 Oeste 0 -- -- 69
2017-12-11 12:00:00 8.7 25 Oeste 41 Sudoeste 0 -- -- 74
2017-12-11 11:00:00 7.8 20 Oeste 37 Oeste 0 -- -- 84
2017-12-11 10:00:00 6.7 27 Oeste 41 Oeste 0 -- -- 87
2017-12-11 09:00:00 6 24 Oeste 34 Oeste 0 -- -- 88
2017-12-11 08:00:00 6.4 21 Oeste 35 Sudoeste 0 -- -- 89
2017-12-11 07:00:00 7.2 25 Oeste 37 Sudoeste 0 -- -- 91
2017-12-11 06:00:00 7.2 21 Oeste 33 Oeste 0.2 -- -- 93
2017-12-11 05:00:00 7.3 19 Oeste 30 Oeste 0.2 -- -- 92
2017-12-11 04:00:00 7.9 23 Oeste 52 Oeste 1.8 -- -- 92
2017-12-11 03:00:00 9.2 21 Oeste 36 Oeste 2.8 -- -- 95
2017-12-11 02:00:00 9.7 31 Oeste 78 Oeste 9.6 -- -- 92
2017-12-11 01:00:00 12.4 45 Sudoeste 74 Sudoeste 1.2 -- -- 93
2017-12-11 00:00:00 12.3 36 Sudoeste 52 Sudoeste 0.8 -- -- 90
2017-12-10 23:00:00 12.6 28 Sudoeste 54 Sudoeste 0.2 -- -- 87
2017-12-10 22:00:00 12.8 32 Sudoeste 49 Sudoeste 0 -- -- 84
2017-12-10 21:00:00 12.5 28 Sudoeste 50 Sudoeste 0.2 -- -- 89
2017-12-10 20:00:00 12.6 29 Sudoeste 47 Sudoeste 0 -- -- 86
2017-12-10 19:00:00 12 16 Sudoeste 24 Sudoeste 0 -- -- 90
2017-12-10 18:00:00 11.8 16 Sudoeste 39 Sudoeste 0.2 -- -- 93
2017-12-10 17:00:00 13 16 Sudoeste 33 Sudoeste 0 -- -- 84
2017-12-10 16:00:00 12.9 19 Sudoeste 32 Sudoeste 0 -- -- 91
2017-12-10 15:00:00 12.2 22 Sudoeste 45 Sudoeste 0.2 -- -- 95
2017-12-10 14:00:00 12 21 Sudoeste 40 Sudoeste 0 -- -- 95
2017-12-10 13:00:00 12.9 17 Sudoeste 39 Sudoeste 0 -- -- 87
2017-12-10 12:00:00 13 17 Sudoeste 32 Sudoeste 0 -- -- 85
2017-12-10 11:00:00 12.1 15 Sudoeste 28 Sudoeste 0 -- -- 89
2017-12-10 10:00:00 11 14 Sudoeste 27 Sudoeste 0 -- -- 92
2017-12-10 09:00:00 10.7 5 Sudoeste 12 Sudoeste 0 -- -- 92
2017-12-10 08:00:00 10.7 6 Sudoeste 17 Sudoeste 0 -- -- 91
2017-12-10 07:00:00 10.9 7 Sudoeste 15 Sudoeste 0 -- -- 92
2017-12-10 06:00:00 10.9 8 Oeste 21 Oeste 0 -- -- 92
2017-12-10 05:00:00 11.1 11 Oeste 21 Oeste 0 -- -- 91
2017-12-10 04:00:00 11.1 14 Oeste 28 Oeste 0 -- -- 92
2017-12-10 03:00:00 10.8 14 Oeste 23 Oeste 0 -- -- 92
2017-12-10 02:00:00 10.9 10 Sudoeste 21 Oeste 0 -- -- 91
2017-12-10 01:00:00 11.4 13 Oeste 26 Oeste 0 -- -- 89
2017-12-10 00:00:00 11.2 13 Oeste 29 Oeste 0 -- -- 85
2017-12-09 23:00:00 13.6 23 Oeste 33 Oeste 0 -- -- 76
2017-12-09 22:00:00 13.4 18 Oeste 28 Oeste 0 -- -- 76
2017-12-09 21:00:00 12 11 Oeste 16 Oeste 0 -- -- 77
2017-12-09 20:00:00 14.1 11 Oeste 25 Noroeste 0 -- -- 67
2017-12-09 19:00:00 15.2 16 Noroeste 26 Noroeste 0 -- -- 63
2017-12-09 18:00:00 15.5 10 Noroeste 14 Noroeste 0 -- -- 60
2017-12-09 17:00:00 16.6 7 Norte 21 Noroeste 0 -- -- 62
2017-12-09 16:00:00 17.2 12 Noroeste 29 Oeste 0 -- -- 62
2017-12-09 15:00:00 17.2 14 Oeste 28 Oeste 0 -- -- 61
2017-12-09 14:00:00 17.1 19 Oeste 34 Oeste 0 -- -- 61
2017-12-09 13:00:00 17 19 Oeste 28 Oeste 0 -- -- 68
2017-12-09 12:00:00 14.5 24 Oeste 31 Oeste 0 -- -- 80
2017-12-09 11:00:00 12.1 10 Sudoeste 15 Sudoeste 0 -- -- 90
2017-12-09 10:00:00 10.1 11 Sudoeste 15 Sudoeste 0 -- -- 94
2017-12-09 09:00:00 10.9 3 Sur 23 Oeste 0 -- -- 87
2017-12-09 08:00:00 13.4 21 Noroeste 33 Noroeste 0 -- -- 75
2017-12-09 07:00:00 13.8 26 Noroeste 35 Noroeste 0 -- -- 74
2017-12-09 06:00:00 14.2 26 Noroeste 35 Oeste 0 -- -- 73
2017-12-09 05:00:00 14.2 21 Noroeste 32 Oeste 0 -- -- 74
2017-12-09 04:00:00 14.4 19 Noroeste 30 Oeste 0 -- -- 75
2017-12-09 03:00:00 14 23 Oeste 32 Oeste 0 -- -- 79
2017-12-09 02:00:00 13.4 15 Oeste 28 Oeste 0 -- -- 84
2017-12-09 01:00:00 13.1 18 Oeste 31 Oeste 0 -- -- 85
2017-12-09 00:00:00 12.2 19 Oeste 29 Oeste 0 -- -- 90
2017-12-08 23:00:00 12.2 21 Oeste 32 Oeste 0 -- -- 90
2017-12-08 22:00:00 11.9 22 Oeste 31 Oeste 0 -- -- 91
2017-12-08 21:00:00 12.5 20 Oeste 26 Oeste 0 -- -- 87
2017-12-08 20:00:00 13.4 17 Oeste 31 Oeste 0 -- -- 83
2017-12-08 19:00:00 14 15 Oeste 25 Oeste 0 -- -- 76
2017-12-08 18:00:00 14.1 16 Oeste 26 Oeste 0 -- -- 71
2017-12-08 17:00:00 15.1 11 Sudoeste 23 Sudoeste 0 -- -- 64
2017-12-08 16:00:00 14.8 12 Sudoeste 23 Oeste 0 -- -- 63
2017-12-08 15:00:00 13.7 10 Sudoeste 21 Oeste 0 -- -- 55
2017-12-08 14:00:00 14.1 12 Sudoeste 21 Sudoeste 0 -- -- 51
2017-12-08 13:00:00 13.5 8 Sur 15 Oeste 0 -- -- 53
2017-12-08 12:00:00 9.5 2 Sudeste 6 Sudoeste 0 -- -- 71
2017-12-08 11:00:00 7.4 3 Sudoeste 8 Sudoeste 0 -- -- 79
2017-12-08 10:00:00 5.8 3 Sudoeste 8 Oeste 0 -- -- 84
2017-12-08 09:00:00 5 2 Oeste 5 Sudoeste 0 -- -- 87
2017-12-08 08:00:00 4.4 0 Calma 4 Sudoeste 0 -- -- 86
2017-12-08 07:00:00 4.9 2 Sudoeste 6 Sudoeste 0 -- -- 83
2017-12-08 06:00:00 5.1 0 Calma 4 Nordeste 0 -- -- 80
2017-12-08 05:00:00 5.4 2 Sudoeste 4 Sudoeste 0 -- -- 78
2017-12-08 04:00:00 6 2 Oeste 4 Sudoeste 0 -- -- 74
2017-12-08 03:00:00 6.2 2 Sudoeste 4 Sudoeste 0 -- -- 70
2017-12-08 02:00:00 5.8 0 Calma 5 Sudoeste 0 -- -- 72
2017-12-08 01:00:00 6.6 2 Este 6 Norte 0 -- -- 64
2017-12-08 00:00:00 7 0 Calma 6 Oeste 0 -- -- 62
2017-12-07 23:00:00 7.5 0 Calma 3 Oeste 0 -- -- 57
2017-12-07 22:00:00 8.1 0 Calma 5 Sur 0 -- -- 52
2017-12-07 21:00:00 8.9 2 Sur 6 Nordeste 0 -- -- 47
2017-12-07 20:00:00 9.3 0 Calma 5 Norte 0 -- -- 48
2017-12-07 19:00:00 9.7 3 Nordeste 9 Nordeste 0 -- -- 45
2017-12-07 18:00:00 11.4 2 Norte 6 Sudoeste 0 -- -- 48
2017-12-07 17:00:00 12.9 5 Sudoeste 13 Oeste 0 -- -- 42
2017-12-07 16:00:00 13.7 6 Sudoeste 12 Sudoeste 0 -- -- 44
2017-12-07 15:00:00 12.9 4 Sudeste 10 Sudoeste 0 -- -- 46
2017-12-07 14:00:00 12.5 6 Sur 10 Sur 0 -- -- 47
2017-12-07 13:00:00 11.4 6 Sur 10 Sur 0 -- -- 49
2017-12-07 12:00:00 8.6 3 Sudeste 8 Sudoeste 0 -- -- 61
2017-12-07 11:00:00 6.4 7 Sudoeste 12 Sudoeste 0 -- -- 70
2017-12-07 10:00:00 4.3 3 Este 4 Este 0 -- -- 77
2017-12-07 09:00:00 1.7 2 Oeste 6 Oeste 0 -- -- 85
2017-12-07 08:00:00 2.2 3 Norte 4 Norte 0 -- -- 80
2017-12-07 07:00:00 1.9 0 Calma 7 Este 0 -- -- 83
2017-12-07 06:00:00 3.5 4 Nordeste 5 Nordeste 0 -- -- 76
2017-12-07 05:00:00 3.6 2 Oeste 6 Este 0 -- -- 73
2017-12-07 04:00:00 4 3 Nordeste 6 Nordeste 0 -- -- 71
2017-12-07 03:00:00 4 2 Norte 10 Nordeste 0 -- -- 67
2017-12-07 02:00:00 4.7 4 Nordeste 6 Nordeste 0 -- -- 62
2017-12-07 01:00:00 4.1 0 Calma 7 Oeste 0 -- -- 65
2017-12-07 00:00:00 6.1 3 Nordeste 6 Nordeste 0 -- -- 55
2017-12-06 23:00:00 5.4 0 Calma 6 Nordeste 0 -- -- 56
2017-12-06 22:00:00 5.3 5 Este 9 Nordeste 0 -- -- 57
2017-12-06 21:00:00 6.5 6 Nordeste 12 Nordeste 0 -- -- 56
2017-12-06 20:00:00 6.5 4 Norte 12 Nordeste 0 -- -- 60
2017-12-06 19:00:00 7.9 8 Nordeste 10 Nordeste 0 -- -- 56
2017-12-06 18:00:00 9.7 7 Nordeste 10 Sudeste 0 -- -- 51
2017-12-06 17:00:00 11.6 7 Este 12 Este 0 -- -- 43
2017-12-06 16:00:00 12.5 7 Este 15 Sudeste 0 -- -- 40
2017-12-06 15:00:00 12.2 9 Este 19 Este 0 -- -- 42
2017-12-06 14:00:00 11.1 10 Este 18 Este 0 -- -- 46
2017-12-06 13:00:00 10.5 9 Este 20 Este 0 -- -- 52
2017-12-06 12:00:00 8.5 7 Este 13 Este 0 -- -- 59
2017-12-06 11:00:00 7.1 4 Sudeste 7 Este 0 -- -- 62
2017-12-06 10:00:00 4.1 3 Este 10 Este 0 -- -- 74
2017-12-06 09:00:00 2.6 5 Nordeste 10 Nordeste 0 -- -- 75
2017-12-06 08:00:00 1.8 7 Este 9 Este 0 -- -- 79
2017-12-06 07:00:00 3.2 5 Nordeste 9 Este 0 -- -- 71
2017-12-06 06:00:00 2.5 3 Nordeste 11 Este 0 -- -- 77
2017-12-06 05:00:00 4.3 8 Nordeste 11 Nordeste 0 -- -- 67
2017-12-06 04:00:00 4.6 8 Nordeste 11 Nordeste 0 -- -- 68
2017-12-06 03:00:00 3.9 9 Este 13 Nordeste 0 -- -- 73
2017-12-06 02:00:00 5.6 8 Nordeste 16 Nordeste 0 -- -- 63
2017-12-06 01:00:00 6.7 9 Nordeste 14 Nordeste 0 -- -- 61
2017-12-06 00:00:00 7.6 9 Nordeste 14 Nordeste 0 -- -- 57
2017-12-05 23:00:00 7.9 6 Nordeste 13 Nordeste 0 -- -- 55
2017-12-05 22:00:00 8.3 10 Nordeste 15 Nordeste 0 -- -- 55
2017-12-05 21:00:00 7.8 7 Nordeste 13 Nordeste 0 -- -- 54
2017-12-05 20:00:00 8 10 Nordeste 14 Nordeste 0 -- -- 54
2017-12-05 19:00:00 9.1 10 Nordeste 14 Nordeste 0 -- -- 52
2017-12-05 18:00:00 10.7 5 Nordeste 13 Este 0 -- -- 50
2017-12-05 17:00:00 12.3 9 Este 18 Este 0 -- -- 45
2017-12-05 16:00:00 12.6 12 Este 21 Este 0 -- -- 45
2017-12-05 15:00:00 12.5 11 Este 19 Este 0 -- -- 47
2017-12-05 14:00:00 11.8 9 Este 18 Sudeste 0 -- -- 50
2017-12-05 13:00:00 10.5 11 Este 17 Este 0 -- -- 53
2017-12-05 12:00:00 9.3 7 Este 14 Este 0 -- -- 57
2017-12-05 11:00:00 7.6 5 Este 9 Este 0 -- -- 64
2017-12-05 10:00:00 4.1 0 Calma 5 Este 0 -- -- 76
2017-12-05 09:00:00 3.6 7 Este 13 Nordeste 0 -- -- 74
2017-12-05 08:00:00 4.6 9 Nordeste 19 Nordeste 0 -- -- 69
2017-12-05 07:00:00 5.3 11 Nordeste 23 Este 0 -- -- 66
2017-12-05 06:00:00 5.3 7 Nordeste 17 Nordeste 0 -- -- 67
2017-12-05 05:00:00 4 10 Nordeste 14 Nordeste 0 -- -- 73
2017-12-05 04:00:00 3.4 9 Nordeste 13 Este 0 -- -- 75
2017-12-05 03:00:00 4.5 10 Nordeste 19 Nordeste 0 -- -- 70
2017-12-05 02:00:00 5.5 13 Nordeste 19 Nordeste 0 -- -- 67
2017-12-05 01:00:00 7.1 10 Nordeste 22 Nordeste 0 -- -- 61
2017-12-05 00:00:00 7.8 16 Nordeste 23 Nordeste 0 -- -- 58
2017-12-04 23:00:00 8 15 Nordeste 23 Norte 0 -- -- 58
2017-12-04 22:00:00 7.9 12 Nordeste 21 Nordeste 0 -- -- 58
2017-12-04 21:00:00 7.8 15 Nordeste 23 Nordeste 0 -- -- 57
2017-12-04 20:00:00 8 15 Nordeste 22 Nordeste 0 -- -- 57
2017-12-04 19:00:00 8.2 13 Nordeste 21 Nordeste 0 -- -- 55
2017-12-04 18:00:00 9.6 9 Nordeste 19 Este 0 -- -- 50
2017-12-04 17:00:00 11.1 13 Nordeste 24 Este 0 -- -- 46
2017-12-04 16:00:00 11.6 15 Este 25 Este 0 -- -- 44
2017-12-04 15:00:00 11.3 17 Este 31 Este 0 -- -- 40
2017-12-04 14:00:00 10.5 14 Este 22 Este 0 -- -- 44
2017-12-04 13:00:00 9.7 11 Este 17 Este 0 -- -- 46
2017-12-04 12:00:00 9 9 Este 14 Este 0 -- -- 50
2017-12-04 11:00:00 6.1 3 Oeste 6 Sur 0 -- -- 63
2017-12-04 10:00:00 2.3 0 Calma 11 Nordeste 0 -- -- 73
2017-12-04 09:00:00 1.7 8 Nordeste 11 Nordeste 0 -- -- 68
2017-12-04 08:00:00 0.6 4 Sudeste 7 Sudeste 0 -- -- 77
2017-12-04 07:00:00 0.9 3 Oeste 5 Oeste 0 -- -- 77
2017-12-04 06:00:00 0.9 0 Calma 6 Sur 0 -- -- 74
2017-12-04 05:00:00 1.4 2 Oeste 10 Oeste 0 -- -- 68
2017-12-04 04:00:00 4 6 Nordeste 14 Nordeste 0 -- -- 53
2017-12-04 03:00:00 2.7 3 Norte 8 Oeste 0 -- -- 64
2017-12-04 02:00:00 2.5 5 Sudoeste 8 Sudoeste 0 -- -- 64
2017-12-04 01:00:00 5.3 8 Nordeste 10 Nordeste 0 -- -- 50
2017-12-04 00:00:00 5.3 3 Noroeste 13 Nordeste 0 -- -- 52
2017-12-03 23:00:00 5.4 2 Norte 18 Norte 0 -- -- 52
2017-12-03 22:00:00 6.5 14 Norte 28 Norte 0 -- -- 50
2017-12-03 21:00:00 6.6 23 Norte 32 Norte 0 -- -- 51
2017-12-03 20:00:00 6.3 10 Nordeste 21 Nordeste 0 -- -- 54
2017-12-03 19:00:00 6.8 15 Norte 23 Norte 0 -- -- 53
2017-12-03 18:00:00 8.2 15 Norte 26 Norte 0 -- -- 50
2017-12-03 17:00:00 10.8 17 Norte 24 Norte 0 -- -- 41
2017-12-03 16:00:00 11.7 10 Norte 21 Norte 0 -- -- 34
2017-12-03 15:00:00 11.4 11 Norte 21 Norte 0 -- -- 35
2017-12-03 14:00:00 10.6 13 Norte 20 Norte 0 -- -- 38
2017-12-03 13:00:00 10 4 Nordeste 13 Nordeste 0 -- -- 41
2017-12-03 12:00:00 8.7 8 Nordeste 22 Norte 0 -- -- 42
2017-12-03 11:00:00 6.9 15 Norte 30 Norte 0 -- -- 50
2017-12-03 10:00:00 6.8 10 Nordeste 28 Norte 0 -- -- 48
2017-12-03 09:00:00 4.7 18 Norte 29 Norte 0 -- -- 56
2017-12-03 08:00:00 3.7 18 Norte 27 Norte 0 -- -- 63
2017-12-03 07:00:00 3.7 18 Norte 27 Norte 0 -- -- 64
2017-12-03 06:00:00 4.4 20 Norte 40 Norte 0 -- -- 62
2017-12-03 05:00:00 3.7 22 Norte 34 Norte 0 -- -- 66
2017-12-03 04:00:00 4.6 26 Norte 37 Norte 0 -- -- 63
2017-12-03 03:00:00 4.7 23 Norte 37 Norte 0 -- -- 62
2017-12-03 02:00:00 5.2 23 Norte 39 Norte 0 -- -- 59
2017-12-03 01:00:00 5.5 19 Norte 31 Norte 0 -- -- 58
2017-12-03 00:00:00 4.9 14 Norte 19 Norte 0 -- -- 61
2017-12-02 23:00:00 4.9 12 Norte 18 Norte 0 -- -- 61
2017-12-02 22:00:00 5.7 12 Norte 18 Norte 0 -- -- 57
2017-12-02 21:00:00 6.4 9 Norte 18 Norte 0 -- -- 54
2017-12-02 20:00:00 6.9 8 Norte 24 Nordeste 0 -- -- 51
2017-12-02 19:00:00 8.2 11 Nordeste 30 Norte 0 -- -- 46
2017-12-02 18:00:00 8.5 11 Norte 25 Norte 0 -- -- 47
2017-12-02 17:00:00 10.2 15 Norte 28 Norte 0 -- -- 42
2017-12-02 16:00:00 10.6 19 Norte 36 Norte 0 -- -- 40
2017-12-02 15:00:00 10.5 19 Norte 38 Norte 0 -- -- 40
2017-12-02 14:00:00 9.7 25 Norte 36 Norte 0 -- -- 42
2017-12-02 13:00:00 8.1 19 Norte 31 Norte 0 -- -- 49
2017-12-02 12:00:00 7 18 Norte 32 Norte 0 -- -- 50
2017-12-02 11:00:00 6 12 Nordeste 24 Norte 0 -- -- 51
2017-12-02 10:00:00 4.5 11 Norte 20 Norte 0 -- -- 56
2017-12-02 09:00:00 3 12 Nordeste 32 Norte 0 -- -- 62
2017-12-02 08:00:00 3.1 23 Norte 39 Norte 0 -- -- 61
2017-12-02 07:00:00 2.7 24 Norte 35 Norte 0 -- -- 65
2017-12-02 06:00:00 3 25 Norte 36 Norte 0 -- -- 66
2017-12-02 05:00:00 3.3 24 Norte 36 Norte 0 -- -- 66
2017-12-02 04:00:00 3.5 24 Norte 36 Norte 0 -- -- 68
2017-12-02 03:00:00 3.7 15 Norte 28 Norte 0 -- -- 69
2017-12-02 02:00:00 4.3 17 Norte 25 Norte 0 -- -- 67
2017-12-02 01:00:00 4.7 15 Norte 22 Norte 0 -- -- 67
2017-12-02 00:00:00 5.1 14 Norte 20 Norte 0 -- -- 64
2017-12-01 23:00:00 5.4 14 Norte 29 Norte 0 -- -- 63
2017-12-01 22:00:00 5.7 19 Norte 30 Norte 0 -- -- 67
2017-12-01 21:00:00 6.2 15 Norte 28 Norte 0 -- -- 67
2017-12-01 20:00:00 7.6 15 Norte 27 Norte 0 -- -- 65
2017-12-01 19:00:00 8.5 13 Norte 40 Norte 0 -- -- 66
2017-12-01 18:00:00 10.4 16 Noroeste 34 Noroeste 0 -- -- 55
2017-12-01 17:00:00 11.5 26 Noroeste 47 Norte 0 -- -- 52
2017-12-01 16:00:00 12.3 25 Noroeste 54 Norte 0 -- -- 50
2017-12-01 15:00:00 12 21 Noroeste 48 Noroeste 0 -- -- 49
2017-12-01 14:00:00 11.8 23 Norte 57 Noroeste 0 -- -- 51
2017-12-01 13:00:00 11.4 17 Noroeste 39 Norte 0 -- -- 52
2017-12-01 12:00:00 9.7 8 Oeste 35 Noroeste 0 -- -- 57
2017-12-01 11:00:00 7.3 20 Noroeste 37 Noroeste 0 -- -- 62
2017-12-01 10:00:00 5.6 18 Noroeste 31 Noroeste 0 -- -- 65
2017-12-01 09:00:00 4.1 9 Noroeste 20 Noroeste 0 -- -- 71
2017-12-01 08:00:00 3.7 0 Calma 9 Este 0 -- -- 70
2017-12-01 07:00:00 3.5 2 Este 23 Noroeste 0 -- -- 71
2017-12-01 06:00:00 4.4 13 Norte 29 Norte 0 -- -- 68
2017-12-01 05:00:00 3.6 6 Sudoeste 13 Sudoeste 0 -- -- 65
2017-12-01 04:00:00 4.9 5 Oeste 17 Noroeste 0 -- -- 60
2017-12-01 03:00:00 3.9 0 Calma 10 Sudoeste 0 -- -- 63
2017-12-01 02:00:00 4.8 4 Oeste 23 Norte 0 -- -- 60
2017-12-01 01:00:00 5.5 12 Norte 19 Norte 0 -- -- 58
2017-12-01 00:00:00 5.7 5 Norte 27 Norte 0 -- -- 56
2017-11-30 23:00:00 6 21 Norte 35 Norte 0 -- -- 55
2017-11-30 22:00:00 6.7 23 Norte 40 Norte 0 -- -- 54
2017-11-30 21:00:00 7.1 27 Norte 45 Norte 0 -- -- 53
2017-11-30 20:00:00 7.6 26 Norte 41 Norte 0 -- -- 50
2017-11-30 19:00:00 8.1 27 Norte 42 Norte 0 -- -- 47
2017-11-30 18:00:00 8.8 21 Norte 33 Norte 0 -- -- 46
2017-11-30 17:00:00 10.4 13 Norte 30 Norte 0 -- -- 44
2017-11-30 16:00:00 10.9 21 Norte 33 Norte 0 -- -- 44
2017-11-30 15:00:00 11.1 23 Norte 33 Norte 0 -- -- 44
2017-11-30 14:00:00 11.1 22 Norte 36 Norte 0 -- -- 44
2017-11-30 13:00:00 10 17 Norte 29 Norte 0 -- -- 46
2017-11-30 12:00:00 8.7 11 Norte 33 Norte 0 -- -- 49
2017-11-30 11:00:00 7.5 10 Norte 29 Nordeste 0 -- -- 54
2017-11-30 10:00:00 5.7 22 Norte 35 Norte 0 -- -- 57
2017-11-30 09:00:00 4.5 22 Norte 31 Norte 0 -- -- 61
2017-11-30 08:00:00 4.2 18 Norte 33 Norte 0 -- -- 62
2017-11-30 07:00:00 4.5 23 Norte 31 Norte 0 -- -- 62
2017-11-30 06:00:00 4.8 24 Norte 31 Norte 0 -- -- 62
2017-11-30 05:00:00 5.1 20 Norte 30 Norte 0 -- -- 64
2017-11-30 04:00:00 5.4 18 Nordeste 31 Norte 0 -- -- 65
2017-11-30 03:00:00 6.2 18 Norte 31 Norte 0 -- -- 62
2017-11-30 02:00:00 6 16 Norte 35 Norte 0 -- -- 62
2017-11-30 01:00:00 6.6 17 Norte 32 Norte 0 -- -- 62
2017-11-30 00:00:00 6.8 20 Norte 32 Norte 0 -- -- 62
2017-11-29 23:00:00 7 19 Norte 42 Norte 0 -- -- 63
2017-11-29 22:00:00 7.1 30 Norte 40 Norte 0 -- -- 63
2017-11-29 21:00:00 7.4 28 Norte 38 Norte 0 -- -- 63
2017-11-29 20:00:00 7.8 28 Norte 39 Norte 0 -- -- 62
2017-11-29 19:00:00 8.4 21 Norte 36 Norte 0 -- -- 59
2017-11-29 18:00:00 9.8 23 Norte 41 Norte 0 -- -- 52
2017-11-29 17:00:00 11.9 27 Norte 44 Norte 0 -- -- 45
2017-11-29 16:00:00 12.6 31 Norte 49 Norte 0 -- -- 44
2017-11-29 15:00:00 12.4 24 Norte 41 Norte 0 -- -- 55
2017-11-29 14:00:00 11.7 28 Norte 43 Noroeste 0 -- -- 60
2017-11-29 13:00:00 10.4 28 Norte 42 Norte 0 -- -- 68
2017-11-29 12:00:00 9.5 28 Norte 40 Norte 0 -- -- 71
2017-11-29 11:00:00 8.9 12 Nordeste 23 Norte 0 -- -- 76
2017-11-29 10:00:00 7.7 17 Norte 37 Norte 0 -- -- 80
2017-11-29 09:00:00 7.4 25 Norte 33 Norte 0 -- -- 83
2017-11-29 08:00:00 7.8 3 Noroeste 18 Noroeste 0 -- -- 90
2017-11-29 07:00:00 8.4 3 Sur 7 Sudoeste 0 -- -- 97
2017-11-29 06:00:00 9 2 Sudoeste 8 Sudeste 0 -- -- 97
2017-11-29 05:00:00 9.3 3 Sudeste 8 Sudeste 0 -- -- 96
2017-11-29 04:00:00 9.6 3 Oeste 9 Sur 0 -- -- 95
2017-11-29 03:00:00 10 0 Calma 9 Nordeste 0 -- -- 96
2017-11-29 02:00:00 9.8 4 Oeste 9 Nordeste 0 -- -- 96
2017-11-29 01:00:00 9.4 9 Nordeste 18 Norte 0 -- -- 96
2017-11-29 00:00:00 9.8 6 Oeste 8 Oeste 0.2 -- -- 96
2017-11-28 23:00:00 9.9 3 Nordeste 7 Oeste 0 -- -- 96
2017-11-28 22:00:00 10.1 4 Oeste 12 Norte 0.2 -- -- 94
2017-11-28 21:00:00 10 0 Calma 4 Nordeste 1.8 -- -- 95
2017-11-28 20:00:00 10.1 0 Calma 5 Nordeste 1.6 -- -- 95
2017-11-28 19:00:00 9.9 4 Nordeste 8 Nordeste 0.4 -- -- 95
2017-11-28 18:00:00 9.9 5 Nordeste 9 Nordeste 0.8 -- -- 95
2017-11-28 17:00:00 9.7 3 Este 9 Nordeste 1.8 -- -- 94
2017-11-28 16:00:00 9.6 6 Nordeste 9 Nordeste 0.6 -- -- 93
2017-11-28 15:00:00 9.4 4 Sudeste 6 Este 1.8 -- -- 93
2017-11-28 14:00:00 9 2 Nordeste 5 Sudeste 0.8 -- -- 91
2017-11-28 13:00:00 8.7 3 Sudeste 8 Nordeste 0.6 -- -- 90
2017-11-28 12:00:00 8 4 Nordeste 9 Nordeste 0.8 -- -- 88
2017-11-28 11:00:00 8.2 3 Este 5 Este 0.6 -- -- 86
2017-11-28 10:00:00 8.2 0 Calma 3 Sur 0.2 -- -- 90
2017-11-28 09:00:00 8 2 Este 6 Nordeste 0.8 -- -- 89
2017-11-28 08:00:00 8.1 0 Calma 11 Nordeste 0.6 -- -- 90
2017-11-28 07:00:00 8.4 5 Nordeste 7 Nordeste 0.4 -- -- 85
2017-11-28 06:00:00 8.7 0 Calma 4 Este 0 -- -- 83
2017-11-28 05:00:00 8.6 2 Nordeste 5 Sudoeste 0 -- -- 87
2017-11-28 04:00:00 8.8 3 Oeste 6 Nordeste 0 -- -- 83
2017-11-28 03:00:00 8.6 5 Norte 6 Norte 0 -- -- 77
2017-11-28 02:00:00 8.6 0 Calma 12 Nordeste 0 -- -- 85
2017-11-28 01:00:00 8.8 6 Nordeste 9 Nordeste 0.2 -- -- 80
2017-11-28 00:00:00 8.6 2 Oeste 8 Sudoeste 0 -- -- 75
2017-11-27 23:00:00 9.5 3 Oeste 14 Nordeste 0 -- -- 77
2017-11-27 22:00:00 9.5 2 Este 4 Este 0.2 -- -- 78
2017-11-27 21:00:00 10.1 0 Calma 6 Nordeste 0 -- -- 55
2017-11-27 20:00:00 10.5 5 Nordeste 9 Nordeste 0 -- -- 50
2017-11-27 19:00:00 10.6 6 Nordeste 12 Norte 0 -- -- 52
2017-11-27 18:00:00 11.5 4 Nordeste 10 Nordeste 0 -- -- 51
2017-11-27 17:00:00 12.6 4 Este 11 Nordeste 0 -- -- 47
2017-11-27 16:00:00 13.3 7 Este 17 Sudeste 0 -- -- 44
2017-11-27 15:00:00 13.9 12 Este 19 Este 0 -- -- 41
2017-11-27 14:00:00 12.9 13 Este 27 Este 0 -- -- 44
2017-11-27 13:00:00 12.5 15 Este 31 Este 0 -- -- 44
2017-11-27 12:00:00 10.8 21 Este 31 Este 0 -- -- 49
2017-11-27 11:00:00 9.2 14 Este 24 Este 0 -- -- 55
2017-11-27 10:00:00 7.4 12 Nordeste 23 Este 0 -- -- 59
2017-11-27 09:00:00 6.5 16 Nordeste 23 Este 0 -- -- 60
2017-11-27 08:00:00 5.9 11 Nordeste 18 Nordeste 0 -- -- 62
2017-11-27 07:00:00 6.7 9 Nordeste 21 Este 0 -- -- 60
2017-11-27 06:00:00 7.5 7 Este 21 Nordeste 0 -- -- 56
2017-11-27 05:00:00 8.1 12 Nordeste 27 Nordeste 0 -- -- 55
2017-11-27 04:00:00 8.6 13 Nordeste 24 Este 0 -- -- 52
2017-11-27 03:00:00 8.5 10 Nordeste 17 Nordeste 0 -- -- 55
2017-11-27 02:00:00 8.9 8 Nordeste 23 Nordeste 0 -- -- 54
2017-11-27 01:00:00 8.8 14 Nordeste 22 Nordeste 0 -- -- 54
2017-11-27 00:00:00 9.6 14 Nordeste 22 Nordeste 0 -- -- 51
2017-11-26 23:00:00 9.6 13 Nordeste 21 Nordeste 0 -- -- 50
2017-11-26 22:00:00 9.6 11 Nordeste 19 Nordeste 0 -- -- 50
2017-11-26 21:00:00 9.5 10 Nordeste 18 Nordeste 0 -- -- 51
2017-11-26 20:00:00 9.5 10 Nordeste 18 Nordeste 0 -- -- 54
2017-11-26 19:00:00 9.6 8 Nordeste 23 Nordeste 0 -- -- 53
2017-11-26 18:00:00 11.4 10 Nordeste 18 Nordeste 0 -- -- 49
2017-11-26 17:00:00 12.9 11 Este 23 Este 0 -- -- 47
2017-11-26 16:00:00 12.8 14 Este 26 Este 0 -- -- 46
2017-11-26 15:00:00 13 17 Este 34 Este 0 -- -- 46
2017-11-26 14:00:00 13 21 Este 36 Este 0 -- -- 46
2017-11-26 13:00:00 12.6 22 Este 41 Este 0 -- -- 48
2017-11-26 12:00:00 11.6 26 Este 40 Este 0 -- -- 52
2017-11-26 11:00:00 11.3 20 Este 37 Este 0 -- -- 56
2017-11-26 10:00:00 10.1 19 Nordeste 26 Nordeste 0 -- -- 60
2017-11-26 09:00:00 9 13 Nordeste 23 Nordeste 0 -- -- 64
2017-11-26 08:00:00 9 14 Nordeste 26 Nordeste 0 -- -- 66
2017-11-26 07:00:00 9.1 16 Nordeste 27 Nordeste 0 -- -- 68
2017-11-26 06:00:00 9.8 19 Nordeste 30 Nordeste 0 -- -- 67
2017-11-26 05:00:00 10.8 19 Nordeste 31 Nordeste 0 -- -- 68
2017-11-26 04:00:00 10.6 21 Norte 38 Norte 0 -- -- 71
2017-11-26 03:00:00 10 25 Norte 38 Norte 0 -- -- 75
2017-11-26 02:00:00 10.3 22 Norte 32 Norte 0 -- -- 77
2017-11-26 01:00:00 11 17 Norte 30 Norte 0 -- -- 75
2017-11-26 00:00:00 11.2 14 Norte 34 Norte 0 -- -- 74
2017-11-25 23:00:00 11.4 13 Nordeste 18 Norte 0 -- -- 75
2017-11-25 22:00:00 11.7 4 Este 30 Norte 0 -- -- 76
2017-11-25 21:00:00 12.5 20 Norte 33 Norte 0 -- -- 74
2017-11-25 20:00:00 13.3 21 Norte 32 Norte 0 -- -- 74
2017-11-25 19:00:00 14.1 19 Norte 27 Norte 0 -- -- 71
2017-11-25 18:00:00 15 6 Norte 14 Norte 0 -- -- 76
2017-11-25 17:00:00 15.4 4 Noroeste 16 Norte 0 -- -- 74
2017-11-25 16:00:00 15.8 9 Norte 19 Norte 0 -- -- 72
2017-11-25 15:00:00 16 6 Oeste 10 Oeste 0 -- -- 70
2017-11-25 14:00:00 15.9 5 Sudoeste 14 Sudoeste 0 -- -- 71
2017-11-25 13:00:00 14.6 7 Sudoeste 12 Sudoeste 0 -- -- 67
2017-11-25 12:00:00 13 2 Nordeste 6 Oeste 0 -- -- 75
2017-11-25 11:00:00 12.4 5 Sudoeste 8 Nordeste 0 -- -- 84
2017-11-25 10:00:00 11.5 3 Nordeste 4 Nordeste 0 -- -- 82
2017-11-25 09:00:00 12.1 3 Este 4 Este 0 -- -- 78
2017-11-25 08:00:00 12.4 2 Nordeste 6 Nordeste 0 -- -- 75
2017-11-25 07:00:00 12.3 4 Nordeste 13 Nordeste 0 -- -- 75
2017-11-25 06:00:00 12 5 Nordeste 10 Este 0 -- -- 79
2017-11-25 05:00:00 12.5 8 Nordeste 13 Nordeste 0 -- -- 78
2017-11-25 04:00:00 11.9 9 Nordeste 12 Nordeste 0 -- -- 78
2017-11-25 03:00:00 12.7 3 Nordeste 4 Nordeste 0 -- -- 79
2017-11-25 02:00:00 13.8 3 Nordeste 5 Norte 0 -- -- 73
2017-11-25 01:00:00 13.6 4 Norte 7 Norte 0 -- -- 72
2017-11-25 00:00:00 14.1 3 Nordeste 5 Nordeste 0 -- -- 70
2017-11-24 23:00:00 14.2 3 Nordeste 5 Nordeste 0 -- -- 70
2017-11-24 22:00:00 14.2 3 Nordeste 5 Este 0 -- -- 71
2017-11-24 21:00:00 14.5 2 Nordeste 4 Este 0 -- -- 70
2017-11-24 20:00:00 15.2 3 Norte 8 Sur 0 -- -- 69
2017-11-24 19:00:00 14.9 3 Sudeste 6 Sur 0 -- -- 70
2017-11-24 18:00:00 17.4 4 Sur 12 Sudoeste 0 -- -- 59
2017-11-24 17:00:00 18.9 8 Sudoeste 26 Sur 0 -- -- 56
2017-11-24 16:00:00 19.7 18 Sur 29 Sudoeste 0 -- -- 50
2017-11-24 15:00:00 19.8 13 Sur 26 Sur 0 -- -- 51
2017-11-24 14:00:00 19.4 14 Sur 28 Sur 0 -- -- 67
2017-11-24 13:00:00 16.9 9 Sudoeste 19 Sur 0 -- -- 82
2017-11-24 12:00:00 14.5 2 Noroeste 6 Este 0 -- -- 89
2017-11-24 11:00:00 13.1 2 Este 12 Nordeste 0 -- -- 89
2017-11-24 10:00:00 12.4 5 Nordeste 12 Nordeste 0 -- -- 88
2017-11-24 09:00:00 11.9 6 Nordeste 15 Nordeste 0 -- -- 90
2017-11-24 08:00:00 11.7 6 Nordeste 15 Este 0 -- -- 92
2017-11-24 07:00:00 11.7 5 Este 17 Este 2.2 -- -- 93
2017-11-24 06:00:00 11.8 5 Nordeste 17 Nordeste 0.8 -- -- 92
2017-11-24 05:00:00 11.9 11 Nordeste 18 Nordeste 0 -- -- 86
2017-11-24 04:00:00 11.8 4 Nordeste 16 Nordeste 0 -- -- 83
2017-11-24 03:00:00 11.5 10 Nordeste 19 Nordeste 0 -- -- 86
2017-11-24 02:00:00 11.5 6 Nordeste 12 Nordeste 0 -- -- 87
2017-11-24 01:00:00 11.4 6 Nordeste 15 Este 0 -- -- 90
2017-11-24 00:00:00 11.2 9 Este 19 Sudeste 0.2 -- -- 91
2017-11-23 23:00:00 12 3 Nordeste 12 Este 1.2 -- -- 82
2017-11-23 22:00:00 12.1 6 Oeste 14 Sudoeste 5.2 -- -- 84
2017-11-23 21:00:00 14.2 8 Sudoeste 23 Sudeste 2 -- -- 67
2017-11-23 20:00:00 16.9 5 Oeste 13 Sur 0 -- -- 45
2017-11-23 19:00:00 18.1 11 Sur 25 Sudeste 0 -- -- 40
2017-11-23 18:00:00 18.5 12 Sudeste 22 Sudeste 0 -- -- 37
2017-11-23 17:00:00 19.5 13 Sur 21 Sur 0 -- -- 35
2017-11-23 16:00:00 19.9 14 Sur 21 Sur 0 -- -- 33
2017-11-23 15:00:00 19.6 13 Sur 21 Sudeste 0 -- -- 37
2017-11-23 14:00:00 18.9 11 Sudeste 19 Sudeste 0 -- -- 41
2017-11-23 13:00:00 18.2 10 Este 18 Este 0 -- -- 41
2017-11-23 12:00:00 17 8 Sudeste 17 Este 0 -- -- 42
2017-11-23 11:00:00 15.3 10 Este 21 Este 0 -- -- 43
2017-11-23 10:00:00 14.2 13 Este 19 Este 0 -- -- 45
2017-11-23 09:00:00 13.6 10 Este 15 Este 0 -- -- 45
2017-11-23 08:00:00 12.8 9 Este 16 Este 0 -- -- 46
2017-11-23 07:00:00 12.6 7 Nordeste 12 Este 0 -- -- 46
2017-11-23 06:00:00 12.9 6 Nordeste 12 Este 0 -- -- 46
2017-11-23 05:00:00 13.6 2 Este 5 Este 0 -- -- 46
2017-11-23 04:00:00 14.2 3 Este 8 Sudeste 0 -- -- 44
2017-11-23 03:00:00 14.1 4 Este 10 Este 0 -- -- 43
2017-11-23 02:00:00 14.1 3 Sudeste 14 Este 0 -- -- 43
2017-11-23 01:00:00 14.9 9 Este 19 Este 0 -- -- 41
2017-11-23 00:00:00 15.1 4 Este 10 Noroeste 0 -- -- 40
2017-11-22 23:00:00 14.9 7 Este 12 Este 0 -- -- 40
2017-11-22 22:00:00 14.9 5 Nordeste 12 Este 0 -- -- 41
2017-11-22 21:00:00 15.4 9 Nordeste 12 Nordeste 0 -- -- 41
2017-11-22 20:00:00 15.7 8 Nordeste 15 Nordeste 0 -- -- 41
2017-11-22 19:00:00 16 9 Nordeste 15 Nordeste 0 -- -- 41
2017-11-22 18:00:00 16 9 Nordeste 18 Este 0 -- -- 42
2017-11-22 17:00:00 18 9 Sudeste 19 Este 0 -- -- 38
2017-11-22 16:00:00 20.2 9 Sudeste 17 Sudeste 0 -- -- 32
2017-11-22 15:00:00 19.4 9 Este 15 Este 0 -- -- 34
2017-11-22 14:00:00 17.8 6 Sudeste 18 Sudeste 0 -- -- 36
2017-11-22 13:00:00 17.2 7 Este 17 Este 0 -- -- 37
2017-11-22 12:00:00 15.7 10 Este 17 Este 0 -- -- 40
2017-11-22 11:00:00 12.8 10 Nordeste 29 Este 0 -- -- 48
2017-11-22 10:00:00 12.3 12 Este 21 Este 0 -- -- 49
2017-11-22 09:00:00 9.7 10 Nordeste 18 Nordeste 0 -- -- 56
2017-11-22 08:00:00 9.6 10 Nordeste 17 Nordeste 0 -- -- 57
2017-11-22 07:00:00 9.6 11 Nordeste 17 Nordeste 0 -- -- 58
2017-11-22 06:00:00 9.4 6 Nordeste 15 Este 0 -- -- 61
2017-11-22 05:00:00 9.8 9 Nordeste 16 Este 0 -- -- 59
2017-11-22 04:00:00 11.2 9 Nordeste 16 Este 0 -- -- 54
2017-11-22 03:00:00 10.4 8 Este 12 Nordeste 0 -- -- 54
2017-11-22 02:00:00 13.2 8 Nordeste 18 Nordeste 0 -- -- 46
2017-11-22 01:00:00 12.7 10 Nordeste 18 Nordeste 0 -- -- 50
2017-11-22 00:00:00 14 7 Nordeste 12 Nordeste 0 -- -- 44
2017-11-21 23:00:00 14.3 5 Nordeste 13 Este 0 -- -- 41
2017-11-21 22:00:00 14.4 10 Nordeste 17 Este 0 -- -- 41
2017-11-21 21:00:00 15.3 9 Nordeste 20 Nordeste 0 -- -- 38
2017-11-21 20:00:00 15.4 12 Nordeste 19 Nordeste 0 -- -- 40
2017-11-21 19:00:00 15 8 Nordeste 18 Este 0 -- -- 47
2017-11-21 18:00:00 17 12 Nordeste 20 Norte 0 -- -- 42
2017-11-21 17:00:00 20.1 6 Norte 16 Norte 0 -- -- 35
2017-11-21 16:00:00 20.3 7 Este 13 Este 0 -- -- 34
2017-11-21 15:00:00 19.5 6 Este 16 Sudeste 0 -- -- 35
2017-11-21 14:00:00 19 7 Sudeste 15 Sudeste 0 -- -- 35
2017-11-21 13:00:00 17.3 9 Este 18 Este 0 -- -- 41
2017-11-21 12:00:00 15.9 11 Este 17 Este 0 -- -- 47
2017-11-21 11:00:00 13.9 5 Este 11 Sudeste 0 -- -- 52
2017-11-21 10:00:00 9.9 4 Este 6 Este 0 -- -- 67
2017-11-21 09:00:00 7.5 3 Oeste 10 Nordeste 0 -- -- 69
2017-11-21 08:00:00 7.6 9 Nordeste 12 Nordeste 0 -- -- 66
2017-11-21 07:00:00 6.7 2 Norte 9 Este 0 -- -- 69
2017-11-21 06:00:00 8.3 6 Este 10 Este 0 -- -- 62
2017-11-21 05:00:00 8.7 7 Este 9 Este 0 -- -- 61
2017-11-21 04:00:00 10.1 5 Nordeste 8 Nordeste 0 -- -- 58
2017-11-21 03:00:00 9.6 6 Este 9 Nordeste 0 -- -- 60
2017-11-21 02:00:00 11.4 7 Nordeste 9 Nordeste 0 -- -- 54
2017-11-21 01:00:00 10.3 2 Oeste 8 Este 0 -- -- 59
2017-11-21 00:00:00 10.9 7 Este 12 Este 0 -- -- 54
2017-11-20 23:00:00 11.2 2 Sudeste 14 Norte 0 -- -- 56
2017-11-20 22:00:00 14.9 7 Noroeste 18 Norte 0 -- -- 43
2017-11-20 21:00:00 14.4 6 Norte 9 Norte 0 -- -- 40
2017-11-20 20:00:00 15.6 6 Nordeste 9 Nordeste 0 -- -- 42
2017-11-20 19:00:00 14.6 4 Nordeste 7 Nordeste 0 -- -- 44
2017-11-20 18:00:00 18.9 2 Nordeste 5 Sudeste 0 -- -- 39
2017-11-20 17:00:00 21.3 3 Sur 9 Sur 0 -- -- 29
2017-11-20 16:00:00 21 4 Sudeste 10 Sudeste 0 -- -- 31
2017-11-20 15:00:00 20.3 5 Sudeste 12 Sudeste 0 -- -- 33
2017-11-20 14:00:00 19.1 6 Sudeste 12 Este 0 -- -- 37
2017-11-20 13:00:00 17.7 3 Sudeste 10 Sudoeste 0 -- -- 45
2017-11-20 12:00:00 15.7 4 Sudoeste 9 Sudoeste 0 -- -- 50
2017-11-20 11:00:00 12.5 3 Sur 6 Sudoeste 0 -- -- 61
2017-11-20 10:00:00 10.5 2 Sur 7 Nordeste 0 -- -- 68
2017-11-20 09:00:00 7 5 Nordeste 9 Nordeste 0 -- -- 78
2017-11-20 08:00:00 6.5 5 Nordeste 10 Este 0 -- -- 74
2017-11-20 07:00:00 7.1 8 Este 11 Este 0 -- -- 72
2017-11-20 06:00:00 6.5 3 Oeste 9 Nordeste 0 -- -- 79
2017-11-20 05:00:00 7.5 2 Norte 6 Nordeste 0 -- -- 73
2017-11-20 04:00:00 8.9 4 Nordeste 6 Nordeste 0 -- -- 62
2017-11-20 03:00:00 9.8 3 Este 7 Nordeste 0 -- -- 59
2017-11-20 02:00:00 10 0 Calma 6 Nordeste 0 -- -- 58
2017-11-20 01:00:00 10 3 Nordeste 9 Noroeste 0 -- -- 58
2017-11-20 00:00:00 13.2 6 Norte 9 Norte 0 -- -- 47
2017-11-19 23:00:00 13 5 Nordeste 10 Nordeste 0 -- -- 46
2017-11-19 22:00:00 13.7 9 Nordeste 12 Este 0 -- -- 45
2017-11-19 21:00:00 13.9 0 Calma 14 Noroeste 0 -- -- 46
2017-11-19 20:00:00 15.4 14 Norte 15 Norte 0 -- -- 42
2017-11-19 19:00:00 15.3 10 Norte 13 Norte 0 -- -- 43
2017-11-19 18:00:00 17.4 10 Norte 13 Norte 0 -- -- 39
2017-11-19 17:00:00 20.3 5 Norte 9 Nordeste 0 -- -- 34
2017-11-19 16:00:00 20.8 4 Nordeste 12 Este 0 -- -- 31
2017-11-19 15:00:00 20.5 3 Este 14 Este 0 -- -- 30
2017-11-19 14:00:00 19.5 9 Este 19 Este 0 -- -- 33
2017-11-19 13:00:00 17.9 11 Este 19 Este 0 -- -- 37
2017-11-19 12:00:00 16.1 11 Este 17 Este 0 -- -- 42
2017-11-19 11:00:00 14.4 9 Este 14 Este 0 -- -- 48
2017-11-19 10:00:00 11.6 3 Este 9 Este 0 -- -- 59
2017-11-19 09:00:00 7.4 0 Calma 9 Este 0 -- -- 74
2017-11-19 08:00:00 5.9 5 Oeste 11 Este 0 -- -- 82
2017-11-19 07:00:00 6.9 8 Este 10 Este 0 -- -- 78
2017-11-19 06:00:00 6.8 0 Calma 6 Oeste 0 -- -- 84
2017-11-19 05:00:00 8 3 Noroeste 8 Este 0 -- -- 74
2017-11-19 04:00:00 9.6 2 Norte 9 Nordeste 0 -- -- 71
2017-11-19 03:00:00 10.1 2 Norte 5 Oeste 0 -- -- 65
2017-11-19 02:00:00 10.5 3 Sudoeste 4 Sudoeste 0 -- -- 66
2017-11-19 01:00:00 11.5 0 Calma 14 Norte 0 -- -- 55
2017-11-19 00:00:00 12 7 Nordeste 10 Nordeste 0 -- -- 54
2017-11-18 23:00:00 13.3 0 Calma 16 Norte 0 -- -- 48
2017-11-18 22:00:00 15 14 Norte 20 Norte 0 -- -- 43
2017-11-18 21:00:00 15.5 9 Norte 10 Norte 0 -- -- 41
2017-11-18 20:00:00 14.6 6 Nordeste 10 Nordeste 0 -- -- 45
2017-11-18 19:00:00 15.6 9 Nordeste 11 Nordeste 0 -- -- 43
2017-11-18 18:00:00 17.6 9 Norte 11 Norte 0 -- -- 37
2017-11-18 17:00:00 20.2 7 Este 18 Este 0 -- -- 32
2017-11-18 16:00:00 20.5 10 Este 19 Nordeste 0 -- -- 31
2017-11-18 15:00:00 20.7 8 Este 17 Sudeste 0 -- -- 32
2017-11-18 14:00:00 19.3 9 Este 18 Nordeste 0 -- -- 35
2017-11-18 13:00:00 18.1 10 Este 19 Este 0 -- -- 38
2017-11-18 12:00:00 16.2 13 Este 32 Este 0 -- -- 43
2017-11-18 11:00:00 14.4 14 Este 26 Este 0 -- -- 48
2017-11-18 10:00:00 11 2 Sudoeste 9 Nordeste 0 -- -- 65
2017-11-18 09:00:00 8.4 6 Nordeste 10 Nordeste 0 -- -- 71
2017-11-18 08:00:00 6.3 2 Norte 5 Oeste 0 -- -- 79
2017-11-18 07:00:00 6.8 5 Oeste 7 Oeste 0 -- -- 75
2017-11-18 06:00:00 8.7 5 Nordeste 7 Nordeste 0 -- -- 67
2017-11-18 05:00:00 8.8 2 Norte 8 Este 0 -- -- 65
2017-11-18 04:00:00 9.6 7 Nordeste 9 Nordeste 0 -- -- 61
2017-11-18 03:00:00 9.5 4 Oeste 4 Oeste 0 -- -- 63
2017-11-18 02:00:00 10.9 0 Calma 5 Nordeste 0 -- -- 56
2017-11-18 01:00:00 10.6 0 Calma 12 Nordeste 0 -- -- 63
2017-11-18 00:00:00 11.3 3 Este 5 Sur 0 -- -- 61
2017-11-17 23:00:00 12.7 4 Sudoeste 9 Oeste 0 -- -- 55
2017-11-17 22:00:00 15.2 6 Noroeste 13 Norte 0 -- -- 42
2017-11-17 21:00:00 14.7 9 Norte 13 Norte 0 -- -- 44
2017-11-17 20:00:00 15.7 2 Nordeste 6 Nordeste 0 -- -- 40
2017-11-17 19:00:00 15.9 5 Nordeste 6 Nordeste 0 -- -- 40
2017-11-17 18:00:00 19.4 3 Oeste 9 Sudoeste 0 -- -- 36
2017-11-17 17:00:00 21.1 4 Sudoeste 13 Sudoeste 0 -- -- 34
2017-11-17 16:00:00 21.4 8 Sudoeste 14 Oeste 0 -- -- 35
2017-11-17 15:00:00 21 6 Sudoeste 13 Oeste 0 -- -- 38
2017-11-17 14:00:00 19.8 6 Sudoeste 10 Este 0 -- -- 39
2017-11-17 13:00:00 18 6 Sudoeste 10 Oeste 0 -- -- 41
2017-11-17 12:00:00 15.5 3 Sur 7 Sudoeste 0 -- -- 48
2017-11-17 11:00:00 11.7 4 Sudoeste 7 Sudoeste 0 -- -- 63
2017-11-17 10:00:00 9.4 2 Oeste 7 Nordeste 0 -- -- 69
2017-11-17 09:00:00 6.2 3 Nordeste 5 Este 0 -- -- 79
2017-11-17 08:00:00 5.7 0 Calma 4 Sudoeste 0 -- -- 79
2017-11-17 07:00:00 6.8 0 Calma 3 Sudeste 0 -- -- 74
2017-11-17 06:00:00 7.5 0 Calma 5 Este 0 -- -- 67
2017-11-17 05:00:00 8.2 7 Nordeste 9 Nordeste 0 -- -- 64
2017-11-17 04:00:00 8.1 0 Calma 3 Oeste 0 -- -- 66
2017-11-17 03:00:00 9 0 Calma 5 Nordeste 0 -- -- 62
2017-11-17 02:00:00 10.5 0 Calma 3 Nordeste 0 -- -- 55
2017-11-17 01:00:00 9.5 0 Calma 4 Oeste 0 -- -- 63
2017-11-17 00:00:00 10.6 3 Oeste 5 Sudoeste 0 -- -- 53
2017-11-16 23:00:00 11.6 3 Norte 12 Nordeste 0 -- -- 48
2017-11-16 22:00:00 13.9 7 Nordeste 12 Norte 0 -- -- 43
2017-11-16 21:00:00 13.3 6 Norte 10 Norte 0 -- -- 41
2017-11-16 20:00:00 13.2 5 Nordeste 8 Norte 0 -- -- 46
2017-11-16 19:00:00 14.7 4 Nordeste 8 Nordeste 0 -- -- 42
2017-11-16 18:00:00 16.6 6 Norte 10 Norte 0 -- -- 40
2017-11-16 17:00:00 18.4 6 Este 15 Sudeste 0 -- -- 35
2017-11-16 16:00:00 19.1 7 Este 14 Este 0 -- -- 35
2017-11-16 15:00:00 18.7 6 Este 14 Este 0 -- -- 36
2017-11-16 14:00:00 17.8 7 Sudeste 13 Este 0 -- -- 38
2017-11-16 13:00:00 16.7 5 Sudeste 13 Sur 0 -- -- 42
2017-11-16 12:00:00 15.3 6 Sudeste 12 Sudeste 0 -- -- 45
2017-11-16 11:00:00 11.8 0 Calma 6 Oeste 0 -- -- 56
2017-11-16 10:00:00 9.3 2 Sur 5 Oeste 0 -- -- 65
2017-11-16 09:00:00 6.4 3 Oeste 7 Nordeste 0 -- -- 70
2017-11-16 08:00:00 5.9 0 Calma 8 Nordeste 0 -- -- 68
2017-11-16 07:00:00 6.8 5 Nordeste 7 Este 0 -- -- 64
2017-11-16 06:00:00 6.7 3 Nordeste 10 Nordeste 0 -- -- 63
2017-11-16 05:00:00 8.5 8 Nordeste 12 Este 0 -- -- 55
2017-11-16 04:00:00 9.5 8 Nordeste 11 Nordeste 0 -- -- 51
2017-11-16 03:00:00 9.1 5 Nordeste 8 Este 0 -- -- 53
2017-11-16 02:00:00 9.6 0 Calma 9 Nordeste 0 -- -- 52
2017-11-16 01:00:00 10 4 Nordeste 6 Este 0 -- -- 51
2017-11-16 00:00:00 10.6 0 Calma 4 Norte 0 -- -- 49
2017-11-15 23:00:00 10.9 2 Este 5 Este 0 -- -- 51
2017-11-15 22:00:00 12 0 Calma 5 Noroeste 0 -- -- 46
2017-11-15 21:00:00 12.4 0 Calma 7 Norte 0 -- -- 42
2017-11-15 20:00:00 13.7 3 Noroeste 9 Noroeste 0 -- -- 39
2017-11-15 19:00:00 13.3 4 Noroeste 8 Oeste 0 -- -- 36
2017-11-15 18:00:00 16.1 3 Noroeste 14 Sudoeste 0 -- -- 32
2017-11-15 17:00:00 18.8 8 Sudoeste 14 Oeste 0 -- -- 30
2017-11-15 16:00:00 19.2 10 Sudoeste 15 Oeste 0 -- -- 30
2017-11-15 15:00:00 18.8 5 Sudoeste 13 Sudoeste 0 -- -- 32
2017-11-15 14:00:00 17.7 9 Oeste 17 Oeste 0 -- -- 33
2017-11-15 13:00:00 16.3 6 Sur 15 Sudoeste 0 -- -- 33
2017-11-15 12:00:00 14.7 7 Sudeste 17 Este 0 -- -- 39
2017-11-15 11:00:00 12.2 8 Este 15 Este 0 -- -- 49
2017-11-15 10:00:00 9.5 7 Este 12 Este 0 -- -- 55
2017-11-15 09:00:00 7.1 7 Este 15 Este 0 -- -- 64
2017-11-15 08:00:00 6.7 10 Nordeste 14 Nordeste 0 -- -- 63
2017-11-15 07:00:00 5.8 3 Nordeste 10 Nordeste 0 -- -- 69
2017-11-15 06:00:00 9.7 6 Nordeste 12 Nordeste 0 -- -- 50
2017-11-15 05:00:00 9.6 10 Norte 18 Norte 0 -- -- 49
2017-11-15 04:00:00 9 9 Nordeste 13 Nordeste 0 -- -- 54
2017-11-15 03:00:00 9 8 Nordeste 12 Nordeste 0 -- -- 55
2017-11-15 02:00:00 9.8 8 Nordeste 15 Nordeste 0 -- -- 51
2017-11-15 01:00:00 9.9 10 Nordeste 14 Nordeste 0 -- -- 50
2017-11-15 00:00:00 10.2 8 Nordeste 13 Nordeste 0 -- -- 50